sensor_id;sensor_type;location;lat;lon;timestamp;temperature;humidity
73780;SHT30;62093;37.614;15.072;2023-11-19T00:00:34;17.93;52.47
73780;SHT30;62093;37.614;15.072;2023-11-19T00:03:00;17.95;52.63
73780;SHT30;62093;37.614;15.072;2023-11-19T00:05:25;17.93;52.15
73780;SHT30;62093;37.614;15.072;2023-11-19T00:07:53;17.93;52.31
73780;SHT30;62093;37.614;15.072;2023-11-19T00:10:19;17.90;52.52
73780;SHT30;62093;37.614;15.072;2023-11-19T00:12:49;17.93;52.47
73780;SHT30;62093;37.614;15.072;2023-11-19T00:15:16;17.90;52.56
73780;SHT30;62093;37.614;15.072;2023-11-19T00:17:47;17.90;52.74
73780;SHT30;62093;37.614;15.072;2023-11-19T00:20:18;17.92;52.47
73780;SHT30;62093;37.614;15.072;2023-11-19T00:22:44;17.92;52.25
73780;SHT30;62093;37.614;15.072;2023-11-19T00:25:14;17.92;52.20
73780;SHT30;62093;37.614;15.072;2023-11-19T00:27:39;17.93;51.88
73780;SHT30;62093;37.614;15.072;2023-11-19T00:30:06;17.93;51.92
73780;SHT30;62093;37.614;15.072;2023-11-19T00:32:32;17.95;51.55
73780;SHT30;62093;37.614;15.072;2023-11-19T00:34:59;17.92;51.83
73780;SHT30;62093;37.614;15.072;2023-11-19T00:37:25;17.93;51.47
73780;SHT30;62093;37.614;15.072;2023-11-19T00:39:52;17.92;51.71
73780;SHT30;62093;37.614;15.072;2023-11-19T00:42:18;17.96;52.35
73780;SHT30;62093;37.614;15.072;2023-11-19T00:44:44;17.95;52.05
73780;SHT30;62093;37.614;15.072;2023-11-19T00:47:11;17.90;51.82
73780;SHT30;62093;37.614;15.072;2023-11-19T00:49:38;17.87;51.32
73780;SHT30;62093;37.614;15.072;2023-11-19T00:52:04;17.92;51.95
73780;SHT30;62093;37.614;15.072;2023-11-19T00:54:29;17.93;51.55
73780;SHT30;62093;37.614;15.072;2023-11-19T00:56:55;17.90;51.32
73780;SHT30;62093;37.614;15.072;2023-11-19T00:59:21;17.86;51.48
73780;SHT30;62093;37.614;15.072;2023-11-19T01:01:47;17.87;51.48
73780;SHT30;62093;37.614;15.072;2023-11-19T01:04:19;17.87;51.22
73780;SHT30;62093;37.614;15.072;2023-11-19T01:06:45;17.86;51.54
73780;SHT30;62093;37.614;15.072;2023-11-19T01:09:11;17.86;51.55
73780;SHT30;62093;37.614;15.072;2023-11-19T01:11:37;17.86;51.81
73780;SHT30;62093;37.614;15.072;2023-11-19T01:14:03;17.86;51.89
73780;SHT30;62093;37.614;15.072;2023-11-19T01:16:29;17.85;52.06
73780;SHT30;62093;37.614;15.072;2023-11-19T01:18:55;17.79;51.96
73780;SHT30;62093;37.614;15.072;2023-11-19T01:21:21;17.81;52.05
73780;SHT30;62093;37.614;15.072;2023-11-19T01:23:47;17.82;52.06
73780;SHT30;62093;37.614;15.072;2023-11-19T01:26:13;17.82;51.67
73780;SHT30;62093;37.614;15.072;2023-11-19T01:28:40;17.82;51.73
73780;SHT30;62093;37.614;15.072;2023-11-19T01:31:15;17.82;51.97
73780;SHT30;62093;37.614;15.072;2023-11-19T01:33:41;17.81;51.83
73780;SHT30;62093;37.614;15.072;2023-11-19T01:36:13;17.81;51.76
73780;SHT30;62093;37.614;15.072;2023-11-19T01:38:38;17.79;51.59
73780;SHT30;62093;37.614;15.072;2023-11-19T01:41:04;17.79;51.87
73780;SHT30;62093;37.614;15.072;2023-11-19T01:43:38;17.79;51.81
73780;SHT30;62093;37.614;15.072;2023-11-19T01:46:07;17.75;51.40
73780;SHT30;62093;37.614;15.072;2023-11-19T01:48:37;17.75;51.75
73780;SHT30;62093;37.614;15.072;2023-11-19T01:51:07;17.78;51.74
73780;SHT30;62093;37.614;15.072;2023-11-19T01:53:35;17.73;51.89
73780;SHT30;62093;37.614;15.072;2023-11-19T01:56:03;17.76;52.01
73780;SHT30;62093;37.614;15.072;2023-11-19T01:58:29;17.75;51.68
73780;SHT30;62093;37.614;15.072;2023-11-19T02:00:56;17.75;51.88
73780;SHT30;62093;37.614;15.072;2023-11-19T02:03:22;17.76;52.21
73780;SHT30;62093;37.614;15.072;2023-11-19T02:05:52;17.76;51.87
73780;SHT30;62093;37.614;15.072;2023-11-19T02:08:18;17.73;51.86
73780;SHT30;62093;37.614;15.072;2023-11-19T02:10:45;17.72;51.94
73780;SHT30;62093;37.614;15.072;2023-11-19T02:13:11;17.73;51.79
73780;SHT30;62093;37.614;15.072;2023-11-19T02:15:40;17.72;51.70
73780;SHT30;62093;37.614;15.072;2023-11-19T02:18:26;17.72;52.05
73780;SHT30;62093;37.614;15.072;2023-11-19T02:20:57;17.73;52.27
73780;SHT30;62093;37.614;15.072;2023-11-19T02:23:24;17.69;51.90
73780;SHT30;62093;37.614;15.072;2023-11-19T02:28:32;17.69;51.74
73780;SHT30;62093;37.614;15.072;2023-11-19T02:30:58;17.73;52.26
73780;SHT30;62093;37.614;15.072;2023-11-19T02:33:25;17.73;52.20
73780;SHT30;62093;37.614;15.072;2023-11-19T02:35:50;17.69;51.87
73780;SHT30;62093;37.614;15.072;2023-11-19T02:38:17;17.68;52.11
73780;SHT30;62093;37.614;15.072;2023-11-19T02:40:42;17.71;51.80
73780;SHT30;62093;37.614;15.072;2023-11-19T02:43:08;17.71;52.19
73780;SHT30;62093;37.614;15.072;2023-11-19T02:45:35;17.68;51.94
73780;SHT30;62093;37.614;15.072;2023-11-19T02:48:02;17.71;52.29
73780;SHT30;62093;37.614;15.072;2023-11-19T02:50:28;17.68;51.89
73780;SHT30;62093;37.614;15.072;2023-11-19T02:52:55;17.68;51.74
73780;SHT30;62093;37.614;15.072;2023-11-19T02:55:24;17.66;52.12
73780;SHT30;62093;37.614;15.072;2023-11-19T02:57:51;17.65;52.25
73780;SHT30;62093;37.614;15.072;2023-11-19T03:00:20;17.66;52.37
73780;SHT30;62093;37.614;15.072;2023-11-19T03:02:50;17.65;52.24
73780;SHT30;62093;37.614;15.072;2023-11-19T03:05:25;17.66;52.09
73780;SHT30;62093;37.614;15.072;2023-11-19T03:07:51;17.65;51.89
73780;SHT30;62093;37.614;15.072;2023-11-19T03:10:17;17.65;52.52
73780;SHT30;62093;37.614;15.072;2023-11-19T03:12:44;17.63;52.00
73780;SHT30;62093;37.614;15.072;2023-11-19T03:15:11;17.63;52.43
73780;SHT30;62093;37.614;15.072;2023-11-19T03:17:41;17.65;52.77
73780;SHT30;62093;37.614;15.072;2023-11-19T03:20:08;17.66;52.29
73780;SHT30;62093;37.614;15.072;2023-11-19T03:22:41;17.63;52.53
73780;SHT30;62093;37.614;15.072;2023-11-19T03:25:08;17.65;51.73
73780;SHT30;62093;37.614;15.072;2023-11-19T03:27:37;17.65;52.45
73780;SHT30;62093;37.614;15.072;2023-11-19T03:30:09;17.63;53.02
73780;SHT30;62093;37.614;15.072;2023-11-19T03:32:35;17.61;52.89
73780;SHT30;62093;37.614;15.072;2023-11-19T03:35:02;17.62;52.63
73780;SHT30;62093;37.614;15.072;2023-11-19T03:37:30;17.61;52.64
73780;SHT30;62093;37.614;15.072;2023-11-19T03:39:56;17.62;53.07
73780;SHT30;62093;37.614;15.072;2023-11-19T03:42:28;17.63;52.99
73780;SHT30;62093;37.614;15.072;2023-11-19T03:44:56;17.62;52.88
73780;SHT30;62093;37.614;15.072;2023-11-19T03:47:22;17.59;52.61
73780;SHT30;62093;37.614;15.072;2023-11-19T03:49:51;17.62;53.19
73780;SHT30;62093;37.614;15.072;2023-11-19T03:52:18;17.62;52.74
73780;SHT30;62093;37.614;15.072;2023-11-19T03:54:44;17.63;52.77
73780;SHT30;62093;37.614;15.072;2023-11-19T03:57:12;17.63;53.09
73780;SHT30;62093;37.614;15.072;2023-11-19T03:59:38;17.62;53.21
73780;SHT30;62093;37.614;15.072;2023-11-19T04:02:05;17.61;52.93
73780;SHT30;62093;37.614;15.072;2023-11-19T04:04:32;17.59;52.91
73780;SHT30;62093;37.614;15.072;2023-11-19T04:07:01;17.59;53.17
73780;SHT30;62093;37.614;15.072;2023-11-19T04:09:28;17.61;53.30
73780;SHT30;62093;37.614;15.072;2023-11-19T04:11:55;17.58;53.34
73780;SHT30;62093;37.614;15.072;2023-11-19T04:14:21;17.59;53.15
73780;SHT30;62093;37.614;15.072;2023-11-19T04:16:47;17.59;53.05
73780;SHT30;62093;37.614;15.072;2023-11-19T04:19:13;17.56;53.14
73780;SHT30;62093;37.614;15.072;2023-11-19T04:21:42;17.59;53.43
73780;SHT30;62093;37.614;15.072;2023-11-19T04:24:11;17.59;53.08
73780;SHT30;62093;37.614;15.072;2023-11-19T04:26:41;17.54;53.12
73780;SHT30;62093;37.614;15.072;2023-11-19T04:29:14;17.56;53.18
73780;SHT30;62093;37.614;15.072;2023-11-19T04:31:43;17.55;53.37
73780;SHT30;62093;37.614;15.072;2023-11-19T04:34:12;17.56;53.04
73780;SHT30;62093;37.614;15.072;2023-11-19T04:36:38;17.56;53.26
73780;SHT30;62093;37.614;15.072;2023-11-19T04:39:04;17.54;53.43
73780;SHT30;62093;37.614;15.072;2023-11-19T04:41:51;17.52;53.17
73780;SHT30;62093;37.614;15.072;2023-11-19T04:44:19;17.54;53.18
73780;SHT30;62093;37.614;15.072;2023-11-19T04:46:45;17.52;53.30
73780;SHT30;62093;37.614;15.072;2023-11-19T04:49:14;17.51;52.87
73780;SHT30;62093;37.614;15.072;2023-11-19T04:51:41;17.48;53.19
73780;SHT30;62093;37.614;15.072;2023-11-19T04:54:08;17.54;53.68
73780;SHT30;62093;37.614;15.072;2023-11-19T04:56:35;17.49;53.37
73780;SHT30;62093;37.614;15.072;2023-11-19T04:59:03;17.52;53.14
73780;SHT30;62093;37.614;15.072;2023-11-19T05:01:29;17.49;52.92
73780;SHT30;62093;37.614;15.072;2023-11-19T05:03:56;17.49;53.25
73780;SHT30;62093;37.614;15.072;2023-11-19T05:06:28;17.49;53.50
73780;SHT30;62093;37.614;15.072;2023-11-19T05:08:55;17.46;53.36
73780;SHT30;62093;37.614;15.072;2023-11-19T05:11:21;17.46;53.26
73780;SHT30;62093;37.614;15.072;2023-11-19T05:13:47;17.46;53.03
73780;SHT30;62093;37.614;15.072;2023-11-19T05:16:13;17.44;53.32
73780;SHT30;62093;37.614;15.072;2023-11-19T05:18:40;17.45;53.23
73780;SHT30;62093;37.614;15.072;2023-11-19T05:21:06;17.45;53.54
73780;SHT30;62093;37.614;15.072;2023-11-19T05:23:33;17.45;53.40
73780;SHT30;62093;37.614;15.072;2023-11-19T05:26:02;17.44;53.11
73780;SHT30;62093;37.614;15.072;2023-11-19T05:28:28;17.44;53.27
73780;SHT30;62093;37.614;15.072;2023-11-19T05:30:54;17.42;53.23
73780;SHT30;62093;37.614;15.072;2023-11-19T05:33:20;17.45;53.50
73780;SHT30;62093;37.614;15.072;2023-11-19T05:35:46;17.46;53.25
73780;SHT30;62093;37.614;15.072;2023-11-19T05:38:12;17.45;53.13
73780;SHT30;62093;37.614;15.072;2023-11-19T05:40:38;17.44;53.21
73780;SHT30;62093;37.614;15.072;2023-11-19T05:43:04;17.46;53.41
73780;SHT30;62093;37.614;15.072;2023-11-19T05:45:32;17.46;53.41
73780;SHT30;62093;37.614;15.072;2023-11-19T05:47:58;17.39;53.51
73780;SHT30;62093;37.614;15.072;2023-11-19T05:50:24;17.42;53.84
73780;SHT30;62093;37.614;15.072;2023-11-19T05:52:50;17.39;53.73
73780;SHT30;62093;37.614;15.072;2023-11-19T05:55:16;17.41;53.93
73780;SHT30;62093;37.614;15.072;2023-11-19T05:57:42;17.41;53.94
73780;SHT30;62093;37.614;15.072;2023-11-19T06:00:08;17.41;53.50
73780;SHT30;62093;37.614;15.072;2023-11-19T06:02:39;17.41;53.85
73780;SHT30;62093;37.614;15.072;2023-11-19T06:05:05;17.39;54.02
73780;SHT30;62093;37.614;15.072;2023-11-19T06:07:32;17.41;54.21
73780;SHT30;62093;37.614;15.072;2023-11-19T06:09:59;17.44;54.59
73780;SHT30;62093;37.614;15.072;2023-11-19T06:12:24;17.41;54.23
73780;SHT30;62093;37.614;15.072;2023-11-19T06:14:50;17.41;54.24
73780;SHT30;62093;37.614;15.072;2023-11-19T06:17:16;17.36;54.31
73780;SHT30;62093;37.614;15.072;2023-11-19T06:19:42;17.39;54.31
73780;SHT30;62093;37.614;15.072;2023-11-19T06:22:08;17.39;54.41
73780;SHT30;62093;37.614;15.072;2023-11-19T06:24:34;17.39;54.49
73780;SHT30;62093;37.614;15.072;2023-11-19T06:27:00;17.38;54.10
73780;SHT30;62093;37.614;15.072;2023-11-19T06:29:25;17.41;54.22
73780;SHT30;62093;37.614;15.072;2023-11-19T06:31:51;17.41;54.79
73780;SHT30;62093;37.614;15.072;2023-11-19T06:34:17;17.44;54.81
73780;SHT30;62093;37.614;15.072;2023-11-19T06:36:43;17.39;54.50
73780;SHT30;62093;37.614;15.072;2023-11-19T06:39:09;17.44;54.56
73780;SHT30;62093;37.614;15.072;2023-11-19T06:41:36;17.45;54.93
73780;SHT30;62093;37.614;15.072;2023-11-19T06:44:05;17.44;54.90
73780;SHT30;62093;37.614;15.072;2023-11-19T06:46:31;17.42;55.07
73780;SHT30;62093;37.614;15.072;2023-11-19T06:48:57;17.46;55.16
73780;SHT30;62093;37.614;15.072;2023-11-19T06:51:23;17.45;55.10
73780;SHT30;62093;37.614;15.072;2023-11-19T06:53:50;17.48;55.36
73780;SHT30;62093;37.614;15.072;2023-11-19T06:56:19;17.46;55.24
73780;SHT30;62093;37.614;15.072;2023-11-19T06:58:45;17.45;55.28
73780;SHT30;62093;37.614;15.072;2023-11-19T07:01:14;17.49;55.42
73780;SHT30;62093;37.614;15.072;2023-11-19T07:03:40;17.49;55.48
73780;SHT30;62093;37.614;15.072;2023-11-19T07:06:05;17.49;55.24
73780;SHT30;62093;37.614;15.072;2023-11-19T07:08:31;17.54;55.51
73780;SHT30;62093;37.614;15.072;2023-11-19T07:10:57;17.54;55.66
73780;SHT30;62093;37.614;15.072;2023-11-19T07:13:23;17.54;55.63
73780;SHT30;62093;37.614;15.072;2023-11-19T07:15:49;17.54;55.52
73780;SHT30;62093;37.614;15.072;2023-11-19T07:18:15;17.55;55.64
73780;SHT30;62093;37.614;15.072;2023-11-19T07:20:41;17.56;55.62
73780;SHT30;62093;37.614;15.072;2023-11-19T07:23:08;17.54;55.56
73780;SHT30;62093;37.614;15.072;2023-11-19T07:25:34;17.58;55.75
73780;SHT30;62093;37.614;15.072;2023-11-19T07:28:01;17.61;55.74
73780;SHT30;62093;37.614;15.072;2023-11-19T07:30:30;17.59;56.29
73780;SHT30;62093;37.614;15.072;2023-11-19T07:32:56;17.61;56.00
73780;SHT30;62093;37.614;15.072;2023-11-19T07:35:22;17.61;56.21
73780;SHT30;62093;37.614;15.072;2023-11-19T07:37:48;17.65;55.83
73780;SHT30;62093;37.614;15.072;2023-11-19T07:40:16;17.63;56.00
73780;SHT30;62093;37.614;15.072;2023-11-19T07:42:42;17.66;56.00
73780;SHT30;62093;37.614;15.072;2023-11-19T07:45:08;17.63;55.91
73780;SHT30;62093;37.614;15.072;2023-11-19T07:47:34;17.66;56.03
73780;SHT30;62093;37.614;15.072;2023-11-19T07:50:00;17.66;55.88
73780;SHT30;62093;37.614;15.072;2023-11-19T07:52:26;17.66;56.71
73780;SHT30;62093;37.614;15.072;2023-11-19T07:54:52;17.71;56.20
73780;SHT30;62093;37.614;15.072;2023-11-19T07:57:18;17.73;56.27
73780;SHT30;62093;37.614;15.072;2023-11-19T07:59:44;17.72;56.12
73780;SHT30;62093;37.614;15.072;2023-11-19T08:02:09;17.69;56.23
73780;SHT30;62093;37.614;15.072;2023-11-19T08:04:35;17.72;56.43
73780;SHT30;62093;37.614;15.072;2023-11-19T08:07:01;17.75;56.34
73780;SHT30;62093;37.614;15.072;2023-11-19T08:09:28;17.73;56.59
73780;SHT30;62093;37.614;15.072;2023-11-19T08:11:54;17.73;56.23
73780;SHT30;62093;37.614;15.072;2023-11-19T08:14:21;17.78;56.64
73780;SHT30;62093;37.614;15.072;2023-11-19T08:16:47;17.75;56.56
73780;SHT30;62093;37.614;15.072;2023-11-19T08:19:13;17.78;56.26
73780;SHT30;62093;37.614;15.072;2023-11-19T08:21:39;17.73;55.96
73780;SHT30;62093;37.614;15.072;2023-11-19T08:24:05;17.76;55.95
73780;SHT30;62093;37.614;15.072;2023-11-19T08:26:31;17.76;55.75
73780;SHT30;62093;37.614;15.072;2023-11-19T08:28:57;17.78;55.91
73780;SHT30;62093;37.614;15.072;2023-11-19T08:31:24;17.82;55.83
73780;SHT30;62093;37.614;15.072;2023-11-19T08:33:51;17.81;55.72
73780;SHT30;62093;37.614;15.072;2023-11-19T08:36:17;17.81;56.28
73780;SHT30;62093;37.614;15.072;2023-11-19T08:38:43;17.83;56.38
73780;SHT30;62093;37.614;15.072;2023-11-19T08:41:09;17.86;56.53
73780;SHT30;62093;37.614;15.072;2023-11-19T08:43:36;17.86;56.48
73780;SHT30;62093;37.614;15.072;2023-11-19T08:46:02;17.87;56.33
73780;SHT30;62093;37.614;15.072;2023-11-19T08:48:28;17.86;56.37
73780;SHT30;62093;37.614;15.072;2023-11-19T08:50:54;17.90;56.30
73780;SHT30;62093;37.614;15.072;2023-11-19T08:53:19;17.90;56.08
73780;SHT30;62093;37.614;15.072;2023-11-19T08:55:46;17.92;56.29
73780;SHT30;62093;37.614;15.072;2023-11-19T08:58:12;17.92;56.65
73780;SHT30;62093;37.614;15.072;2023-11-19T09:00:38;17.90;56.47
73780;SHT30;62093;37.614;15.072;2023-11-19T09:03:04;17.92;56.51
73780;SHT30;62093;37.614;15.072;2023-11-19T09:05:30;17.96;56.39
73780;SHT30;62093;37.614;15.072;2023-11-19T09:07:57;17.93;56.26
73780;SHT30;62093;37.614;15.072;2023-11-19T09:10:22;17.93;56.39
73780;SHT30;62093;37.614;15.072;2023-11-19T09:12:48;17.97;56.15
73780;SHT30;62093;37.614;15.072;2023-11-19T09:15:14;17.96;56.57
73780;SHT30;62093;37.614;15.072;2023-11-19T09:17:40;17.96;56.63
73780;SHT30;62093;37.614;15.072;2023-11-19T09:20:07;17.99;56.48
73780;SHT30;62093;37.614;15.072;2023-11-19T09:22:34;17.99;56.57
73780;SHT30;62093;37.614;15.072;2023-11-19T09:25:00;18.03;56.32
73780;SHT30;62093;37.614;15.072;2023-11-19T09:27:26;18.00;56.23
73780;SHT30;62093;37.614;15.072;2023-11-19T09:29:52;18.02;56.71
73780;SHT30;62093;37.614;15.072;2023-11-19T09:32:23;18.06;56.33
73780;SHT30;62093;37.614;15.072;2023-11-19T09:34:50;18.04;56.30
73780;SHT30;62093;37.614;15.072;2023-11-19T09:37:16;18.06;56.46
73780;SHT30;62093;37.614;15.072;2023-11-19T09:39:43;18.06;56.65
73780;SHT30;62093;37.614;15.072;2023-11-19T09:42:10;18.09;56.68
73780;SHT30;62093;37.614;15.072;2023-11-19T09:44:41;18.09;56.43
73780;SHT30;62093;37.614;15.072;2023-11-19T09:47:10;18.09;56.16
73780;SHT30;62093;37.614;15.072;2023-11-19T09:49:37;18.09;56.48
73780;SHT30;62093;37.614;15.072;2023-11-19T09:52:05;18.12;56.51
73780;SHT30;62093;37.614;15.072;2023-11-19T09:54:31;18.10;56.41
73780;SHT30;62093;37.614;15.072;2023-11-19T09:56:58;18.12;56.37
73780;SHT30;62093;37.614;15.072;2023-11-19T09:59:29;18.16;56.50
73780;SHT30;62093;37.614;15.072;2023-11-19T10:01:56;18.16;56.35
73780;SHT30;62093;37.614;15.072;2023-11-19T10:04:23;18.16;56.44
73780;SHT30;62093;37.614;15.072;2023-11-19T10:06:51;18.18;56.15
73780;SHT30;62093;37.614;15.072;2023-11-19T10:09:18;18.18;56.23
73780;SHT30;62093;37.614;15.072;2023-11-19T10:11:45;18.18;56.46
73780;SHT30;62093;37.614;15.072;2023-11-19T10:14:11;18.18;56.45
73780;SHT30;62093;37.614;15.072;2023-11-19T10:16:39;18.22;56.43
73780;SHT30;62093;37.614;15.072;2023-11-19T10:19:06;18.23;56.41
73780;SHT30;62093;37.614;15.072;2023-11-19T10:21:33;18.20;56.45
73780;SHT30;62093;37.614;15.072;2023-11-19T10:24:00;18.24;56.56
73780;SHT30;62093;37.614;15.072;2023-11-19T10:26:27;18.26;56.60
73780;SHT30;62093;37.614;15.072;2023-11-19T10:28:53;18.26;56.24
73780;SHT30;62093;37.614;15.072;2023-11-19T10:31:21;18.26;56.49
73780;SHT30;62093;37.614;15.072;2023-11-19T10:33:52;18.26;56.46
73780;SHT30;62093;37.614;15.072;2023-11-19T10:36:18;18.30;56.53
73780;SHT30;62093;37.614;15.072;2023-11-19T10:38:53;18.33;56.44
73780;SHT30;62093;37.614;15.072;2023-11-19T10:41:31;18.32;56.26
73780;SHT30;62093;37.614;15.072;2023-11-19T10:43:59;18.32;56.34
73780;SHT30;62093;37.614;15.072;2023-11-19T10:46:39;18.34;56.23
73780;SHT30;62093;37.614;15.072;2023-11-19T10:49:07;18.37;56.23
73780;SHT30;62093;37.614;15.072;2023-11-19T10:51:34;18.34;56.44
73780;SHT30;62093;37.614;15.072;2023-11-19T10:54:07;18.38;56.43
73780;SHT30;62093;37.614;15.072;2023-11-19T10:56:35;18.38;56.34
73780;SHT30;62093;37.614;15.072;2023-11-19T10:59:02;18.40;56.44
73780;SHT30;62093;37.614;15.072;2023-11-19T11:01:45;18.38;56.44
73780;SHT30;62093;37.614;15.072;2023-11-19T11:04:14;18.40;56.37
73780;SHT30;62093;37.614;15.072;2023-11-19T11:06:44;18.40;56.29
73780;SHT30;62093;37.614;15.072;2023-11-19T11:09:12;18.43;56.25
73780;SHT30;62093;37.614;15.072;2023-11-19T11:11:47;18.41;56.37
73780;SHT30;62093;37.614;15.072;2023-11-19T11:14:14;18.43;56.27
73780;SHT30;62093;37.614;15.072;2023-11-19T11:16:46;18.43;56.09
73780;SHT30;62093;37.614;15.072;2023-11-19T11:19:16;18.43;56.01
73780;SHT30;62093;37.614;15.072;2023-11-19T11:21:48;18.43;56.07
73780;SHT30;62093;37.614;15.072;2023-11-19T11:24:50;18.47;56.02
73780;SHT30;62093;37.614;15.072;2023-11-19T11:30:31;18.45;55.96
73780;SHT30;62093;37.614;15.072;2023-11-19T11:36:11;18.51;55.46
73780;SHT30;62093;37.614;15.072;2023-11-19T11:38:40;18.53;56.07
73780;SHT30;62093;37.614;15.072;2023-11-19T11:41:21;18.50;56.19
73780;SHT30;62093;37.614;15.072;2023-11-19T11:43:50;18.50;56.28
73780;SHT30;62093;37.614;15.072;2023-11-19T11:49:28;18.48;56.26
73780;SHT30;62093;37.614;15.072;2023-11-19T11:51:58;18.50;56.17
73780;SHT30;62093;37.614;15.072;2023-11-19T12:02:09;18.50;55.57
73780;SHT30;62093;37.614;15.072;2023-11-19T12:04:36;18.50;55.33
73780;SHT30;62093;37.614;15.072;2023-11-19T12:07:12;18.51;55.16
73780;SHT30;62093;37.614;15.072;2023-11-19T12:09:47;18.54;55.00
73780;SHT30;62093;37.614;15.072;2023-11-19T12:17:47;18.54;54.96
73780;SHT30;62093;37.614;15.072;2023-11-19T12:20:17;18.57;54.92
73780;SHT30;62093;37.614;15.072;2023-11-19T12:22:45;18.57;54.81
73780;SHT30;62093;37.614;15.072;2023-11-19T12:25:12;18.57;54.90
73780;SHT30;62093;37.614;15.072;2023-11-19T12:27:44;18.58;54.81
73780;SHT30;62093;37.614;15.072;2023-11-19T12:30:10;18.61;54.82
73780;SHT30;62093;37.614;15.072;2023-11-19T12:32:44;18.60;54.75
73780;SHT30;62093;37.614;15.072;2023-11-19T12:35:10;18.60;54.80
73780;SHT30;62093;37.614;15.072;2023-11-19T12:37:50;18.63;54.83
73780;SHT30;62093;37.614;15.072;2023-11-19T12:40:21;18.63;54.82
73780;SHT30;62093;37.614;15.072;2023-11-19T12:42:50;18.61;54.79
73780;SHT30;62093;37.614;15.072;2023-11-19T12:45:17;18.61;54.80
73780;SHT30;62093;37.614;15.072;2023-11-19T12:47:47;18.65;54.70
73780;SHT30;62093;37.614;15.072;2023-11-19T12:50:16;18.65;54.75
73780;SHT30;62093;37.614;15.072;2023-11-19T12:52:58;18.65;54.84
73780;SHT30;62093;37.614;15.072;2023-11-19T12:55:28;18.65;54.71
73780;SHT30;62093;37.614;15.072;2023-11-19T12:58:32;18.63;54.84
73780;SHT30;62093;37.614;15.072;2023-11-19T13:01:03;18.69;54.72
73780;SHT30;62093;37.614;15.072;2023-11-19T13:03:33;18.68;54.69
73780;SHT30;62093;37.614;15.072;2023-11-19T13:06:07;18.68;54.69
73780;SHT30;62093;37.614;15.072;2023-11-19T13:11:04;18.69;54.70
73780;SHT30;62093;37.614;15.072;2023-11-19T13:13:32;18.69;54.42
73780;SHT30;62093;37.614;15.072;2023-11-19T13:16:05;18.68;54.36
73780;SHT30;62093;37.614;15.072;2023-11-19T13:18:34;18.69;54.00
73780;SHT30;62093;37.614;15.072;2023-11-19T13:21:00;18.69;54.15
73780;SHT30;62093;37.614;15.072;2023-11-19T13:23:26;18.68;53.93
73780;SHT30;62093;37.614;15.072;2023-11-19T13:25:52;18.67;53.95
73780;SHT30;62093;37.614;15.072;2023-11-19T13:28:18;18.69;54.02
73780;SHT30;62093;37.614;15.072;2023-11-19T13:30:43;18.72;53.90
73780;SHT30;62093;37.614;15.072;2023-11-19T13:33:09;18.71;53.78
73780;SHT30;62093;37.614;15.072;2023-11-19T13:35:38;18.69;53.89
73780;SHT30;62093;37.614;15.072;2023-11-19T13:38:06;18.72;53.92
73780;SHT30;62093;37.614;15.072;2023-11-19T13:40:34;18.72;53.90
73780;SHT30;62093;37.614;15.072;2023-11-19T13:43:00;18.72;53.71
73780;SHT30;62093;37.614;15.072;2023-11-19T13:45:26;18.69;53.67
73780;SHT30;62093;37.614;15.072;2023-11-19T13:47:53;18.71;53.61
73780;SHT30;62093;37.614;15.072;2023-11-19T13:50:19;18.74;53.05
73780;SHT30;62093;37.614;15.072;2023-11-19T13:52:45;18.71;53.29
73780;SHT30;62093;37.614;15.072;2023-11-19T13:55:13;18.71;53.77
73780;SHT30;62093;37.614;15.072;2023-11-19T13:57:41;18.75;53.51
73780;SHT30;62093;37.614;15.072;2023-11-19T14:00:11;18.72;53.39
73780;SHT30;62093;37.614;15.072;2023-11-19T14:02:42;18.72;53.29
73780;SHT30;62093;37.614;15.072;2023-11-19T14:05:09;18.71;53.02
73780;SHT30;62093;37.614;15.072;2023-11-19T14:07:36;18.72;53.12
73780;SHT30;62093;37.614;15.072;2023-11-19T14:10:03;18.72;53.02
73780;SHT30;62093;37.614;15.072;2023-11-19T14:12:30;18.71;53.22
73780;SHT30;62093;37.614;15.072;2023-11-19T14:14:58;18.69;53.37
73780;SHT30;62093;37.614;15.072;2023-11-19T14:17:24;18.72;53.46
73780;SHT30;62093;37.614;15.072;2023-11-19T14:19:51;18.72;53.12
73780;SHT30;62093;37.614;15.072;2023-11-19T14:22:17;18.74;53.23
73780;SHT30;62093;37.614;15.072;2023-11-19T14:24:43;18.72;53.34
73780;SHT30;62093;37.614;15.072;2023-11-19T14:27:10;18.71;53.39
73780;SHT30;62093;37.614;15.072;2023-11-19T14:29:36;18.71;52.99
73780;SHT30;62093;37.614;15.072;2023-11-19T14:32:03;18.69;53.10
73780;SHT30;62093;37.614;15.072;2023-11-19T14:34:30;18.71;53.15
73780;SHT30;62093;37.614;15.072;2023-11-19T14:36:56;18.71;53.21
73780;SHT30;62093;37.614;15.072;2023-11-19T14:39:22;18.71;53.10
73780;SHT30;62093;37.614;15.072;2023-11-19T14:41:48;18.71;53.14
73780;SHT30;62093;37.614;15.072;2023-11-19T14:44:15;18.71;53.28
73780;SHT30;62093;37.614;15.072;2023-11-19T14:46:41;18.69;53.42
73780;SHT30;62093;37.614;15.072;2023-11-19T14:49:06;18.71;53.17
73780;SHT30;62093;37.614;15.072;2023-11-19T14:51:37;18.74;53.40
73780;SHT30;62093;37.614;15.072;2023-11-19T14:54:04;18.72;53.31
73780;SHT30;62093;37.614;15.072;2023-11-19T14:56:30;18.68;53.13
73780;SHT30;62093;37.614;15.072;2023-11-19T14:58:56;18.71;53.25
73780;SHT30;62093;37.614;15.072;2023-11-19T15:01:21;18.69;53.35
73780;SHT30;62093;37.614;15.072;2023-11-19T15:03:47;18.71;53.28
73780;SHT30;62093;37.614;15.072;2023-11-19T15:06:13;18.71;53.27
73780;SHT30;62093;37.614;15.072;2023-11-19T15:08:39;18.71;53.36
73780;SHT30;62093;37.614;15.072;2023-11-19T15:11:05;18.69;53.25
73780;SHT30;62093;37.614;15.072;2023-11-19T15:13:32;18.69;53.24
73780;SHT30;62093;37.614;15.072;2023-11-19T15:15:59;18.69;53.22
73780;SHT30;62093;37.614;15.072;2023-11-19T15:18:24;18.69;53.25
73780;SHT30;62093;37.614;15.072;2023-11-19T15:20:50;18.69;53.05
73780;SHT30;62093;37.614;15.072;2023-11-19T15:23:16;18.68;53.08
73780;SHT30;62093;37.614;15.072;2023-11-19T15:25:42;18.68;52.92
73780;SHT30;62093;37.614;15.072;2023-11-19T15:28:08;18.65;52.64
73780;SHT30;62093;37.614;15.072;2023-11-19T15:30:35;18.65;52.87
73780;SHT30;62093;37.614;15.072;2023-11-19T15:33:01;18.68;52.99
73780;SHT30;62093;37.614;15.072;2023-11-19T15:35:27;18.67;53.07
73780;SHT30;62093;37.614;15.072;2023-11-19T15:37:53;18.67;52.91
73780;SHT30;62093;37.614;15.072;2023-11-19T15:40:19;18.67;52.92
73780;SHT30;62093;37.614;15.072;2023-11-19T15:42:46;18.65;53.00
73780;SHT30;62093;37.614;15.072;2023-11-19T15:45:13;18.67;53.09